Krassy — DD7405 — position and weather

sailwx.info

Track history (hours):
 
Tides and Currents Weather Stations Pressure Air Temp Water Temp Dewpoint Dewpoint Depression Visibility Wind Speed Wind Dir Waves Ship Positions

Krassy

Last reported at 2018-Jun-16 01:27 UTC. Time now 2018-Jun-22 20:28 UTC.
Position N 39°25' W 028°12'.

Length 11 m.

Type: Pleasure craft. MMSI: 211591740.

Date/timePositionNaut miles runAvg speedWind from/ knotsBaromVisibWave heightAir tempDewpointWater temp
2018-Jun-16 01:27N 39°25' W 028°12'3 6.2
2018-Jun-16 00:55N 39°21' W 028°13'3 5.9
2018-Jun-16 00:28N 39°19' W 028°14'4 6.0
2018-Jun-15 23:51N 39°15' W 028°16'2 6.0
2018-Jun-15 23:27N 39°13' W 028°17'7 6.2
2018-Jun-15 22:23N 39°07' W 028°20'2 4.2
2018-Jun-15 21:57N 39°05' W 028°21'4 5.3
2018-Jun-15 21:08N 39°01' W 028°23'1 4.9
2018-Jun-15 20:58N 39°00' W 028°23'2 4.9
2018-Jun-15 20:30N 38°58' W 028°24'1 2.4
2018-Jun-15 19:55N 38°57' W 028°24'1 2.6
2018-Jun-15 19:30N 38°56' W 028°24'1 2.7
2018-Jun-15 19:00N 38°55' W 028°24'1 2.6
2018-Jun-15 18:30N 38°53' W 028°25'1 2.8
2018-Jun-15 18:00N 38°52' W 028°25'2 3.0
2018-Jun-15 17:30N 38°50' W 028°26'2 3.1
2018-Jun-15 17:01N 38°49' W 028°26'2 3.9
2018-Jun-15 16:30N 38°47' W 028°27'2 4.7
2018-Jun-15 16:01N 38°45' W 028°29'3 5.0
2018-Jun-15 15:30N 38°43' W 028°30'3 5.3
2018-Jun-15 15:00N 38°40' W 028°31'2 4.2
2018-Jun-15 14:31N 38°38' W 028°32'2 3.9
2018-Jun-15 14:00N 38°36' W 028°33'3 6.6
2018-Jun-15 13:30N 38°34' W 028°35'3 4.3
2018-Jun-15 12:52N 38°32' W 028°38'0 0.0
2018-Jun-15 12:22N 38°32' W 028°38'0 0.0
2018-Jun-15 11:58N 38°32' W 028°38'0 0.0
2018-Jun-15 11:28N 38°32' W 028°38'0 0.0
2018-Jun-15 10:58N 38°32' W 028°38'0 0.0
2018-Jun-15 10:28N 38°32' W 028°38'0 0.0
2018-Jun-15 09:58N 38°32' W 028°38'0 0.0
2018-Jun-15 09:28N 38°32' W 028°38'0 0.0
2018-Jun-15 08:58N 38°32' W 028°38'0 0.0
2018-Jun-15 08:25N 38°32' W 028°38'0 0.0
2018-Jun-15 07:58N 38°32' W 028°38'0 0.0
2018-Jun-15 07:28N 38°32' W 028°38'0 0.0
2018-Jun-15 06:58N 38°32' W 028°38'0 0.0
2018-Jun-15 06:28N 38°32' W 028°38'0 0.0
2018-Jun-15 05:58N 38°32' W 028°38'0 0.0
2018-Jun-15 05:28N 38°32' W 028°38'0 0.0
2018-Jun-15 04:58N 38°32' W 028°38'0 0.0
2018-Jun-15 04:25N 38°32' W 028°38'0 0.0
2018-Jun-15 03:58N 38°32' W 028°38'0 0.0
2018-Jun-15 03:28N 38°32' W 028°38'0 0.0
2018-Jun-15 02:58N 38°32' W 028°38'0 0.0
2018-Jun-15 02:28N 38°32' W 028°38'0 0.0
2018-Jun-15 01:58N 38°32' W 028°38'0 0.0
2018-Jun-15 01:28N 38°32' W 028°38'0 0.0
2018-Jun-15 00:58N 38°32' W 028°38'0 0.0
2018-Jun-15 00:28N 38°32' W 028°38'0 0.0
2018-Jun-14 23:58N 38°32' W 028°38'0 0.0
2018-Jun-14 23:28N 38°32' W 028°38'0 0.0
2018-Jun-14 22:58N 38°32' W 028°38'0 0.0
2018-Jun-14 22:28N 38°32' W 028°38'0 0.0
2018-Jun-14 21:58N 38°32' W 028°38'0 0.0
2018-Jun-14 21:28N 38°32' W 028°38'0 0.0
2018-Jun-14 20:58N 38°32' W 028°38'0 0.0
2018-Jun-14 20:28N 38°32' W 028°38'0 0.0
2018-Jun-14 19:58N 38°32' W 028°38'0 0.0
2018-Jun-14 19:28N 38°32' W 028°38'0 0.0
2018-Jun-14 18:58N 38°32' W 028°38'0 0.0
2018-Jun-14 18:28N 38°32' W 028°38'0 0.0
2018-Jun-14 17:58N 38°32' W 028°38'0 0.0
2018-Jun-14 17:28N 38°32' W 028°38'0 0.0
2018-Jun-14 16:58N 38°32' W 028°38'0 0.0
2018-Jun-14 16:25N 38°32' W 028°38'0 0.0
2018-Jun-14 15:58N 38°32' W 028°38'0 0.0
2018-Jun-14 15:28N 38°32' W 028°38'0 0.0
2018-Jun-14 14:58N 38°32' W 028°38'0 0.0
2018-Jun-14 14:28N 38°32' W 028°38'0 0.0
2018-Jun-14 13:55N 38°32' W 028°38'0 0.0
2018-Jun-14 13:28N 38°32' W 028°38'0 0.0
2018-Jun-14 12:58N 38°32' W 028°38'0 0.0
2018-Jun-14 12:25N 38°32' W 028°38'0 0.0
2018-Jun-14 11:58N 38°32' W 028°38'0 0.0
2018-Jun-14 11:28N 38°32' W 028°38'0 0.0
2018-Jun-14 10:58N 38°32' W 028°38'0 0.0
2018-Jun-14 10:22N 38°32' W 028°38'0 0.0
2018-Jun-14 09:58N 38°32' W 028°38'0 0.0
2018-Jun-14 09:28N 38°32' W 028°38'0 0.0
2018-Jun-14 08:58N 38°32' W 028°38'0 0.0
2018-Jun-14 08:28N 38°32' W 028°38'0 0.0
2018-Jun-14 07:58N 38°32' W 028°38'0 0.0
2018-Jun-14 07:22N 38°32' W 028°38'0 0.0
2018-Jun-14 06:58N 38°32' W 028°38'0 0.0
2018-Jun-14 06:28N 38°32' W 028°38'0 0.0
2018-Jun-14 05:58N 38°32' W 028°38'0 0.0
2018-Jun-14 05:28N 38°32' W 028°38'0 0.0
2018-Jun-14 04:52N 38°32' W 028°38'0 0.0
2018-Jun-14 04:28N 38°32' W 028°38'0 0.0
2018-Jun-14 03:52N 38°32' W 028°38'0 0.0
2018-Jun-14 03:22N 38°32' W 028°38'0 0.0
2018-Jun-14 02:58N 38°32' W 028°38'0 0.0
2018-Jun-14 02:28N 38°32' W 028°38'0 0.0
2018-Jun-14 01:58N 38°32' W 028°38'0 0.0
2018-Jun-14 01:28N 38°32' W 028°38'0 0.0
2018-Jun-14 00:58N 38°32' W 028°38'0 0.0
2018-Jun-14 00:25N 38°32' W 028°38'0 0.0
2018-Jun-13 23:52N 38°32' W 028°38'0 0.0
2018-Jun-13 23:28N 38°32' W 028°38'0 0.0
2018-Jun-13 22:58N 38°32' W 028°38'0 0.0
2018-Jun-13 22:28N 38°32' W 028°38'0 0.0
2018-Jun-13 21:55N 38°32' W 028°38'0 0.0
2018-Jun-13 21:28N 38°32' W 028°38'0 0.0
2018-Jun-13 20:58N 38°32' W 028°38'0 0.0
2018-Jun-13 20:28N 38°32' W 028°38'0 0.0
2018-Jun-13 19:58N 38°32' W 028°38'0 0.0
2018-Jun-13 19:28N 38°32' W 028°38'0 0.0
2018-Jun-13 18:55N 38°32' W 028°38'0 0.0
2018-Jun-13 18:25N 38°32' W 028°38'0 0.0
2018-Jun-13 17:58N 38°32' W 028°38'0 0.0
2018-Jun-13 17:28N 38°32' W 028°38'0 0.0
2018-Jun-13 16:58N 38°32' W 028°38'0 0.0
2018-Jun-13 16:28N 38°32' W 028°38'0 0.0
2018-Jun-13 15:55N 38°32' W 028°38'0 0.0
2018-Jun-13 15:22N 38°32' W 028°38'0 0.0
2018-Jun-13 14:52N 38°32' W 028°38'0 0.0
2018-Jun-13 14:25N 38°32' W 028°38'0 0.0
2018-Jun-13 13:58N 38°32' W 028°38'0 0.0
2018-Jun-13 13:28N 38°32' W 028°38'0 0.0
2018-Jun-13 12:49N 38°32' W 028°38'0 0.0
2018-Jun-13 12:28N 38°32' W 028°38'0 0.0
2018-Jun-13 11:58N 38°32' W 028°38'0 0.0
2018-Jun-13 11:22N 38°32' W 028°38'0 0.0
2018-Jun-13 10:58N 38°32' W 028°38'0 0.0
2018-Jun-13 10:28N 38°32' W 028°38'0 0.0
2018-Jun-13 09:55N 38°32' W 028°38'0 0.0
2018-Jun-13 09:28N 38°32' W 028°38'0 0.0
2018-Jun-13 08:55N 38°32' W 028°38'0 0.0
2018-Jun-13 08:28N 38°32' W 028°38'0 0.0
2018-Jun-13 07:58N 38°32' W 028°38'0 0.0
2018-Jun-13 07:28N 38°32' W 028°38'0 0.0
2018-Jun-13 06:58N 38°32' W 028°38'0 0.0
2018-Jun-13 06:22N 38°32' W 028°38'0 0.0
2018-Jun-13 05:58N 38°32' W 028°38'0 0.0
2018-Jun-13 05:28N 38°32' W 028°38'0 0.0
2018-Jun-13 04:46N 38°32' W 028°38'0 0.0
2018-Jun-13 04:28N 38°32' W 028°38'0 0.0
2018-Jun-13 03:58N 38°32' W 028°38'0 0.0
2018-Jun-13 03:22N 38°32' W 028°38'0 0.0
2018-Jun-13 02:58N 38°32' W 028°38'0 0.0
2018-Jun-13 02:28N 38°32' W 028°38'0 0.0
2018-Jun-13 01:55N 38°32' W 028°38'0 0.0
2018-Jun-13 01:28N 38°32' W 028°38'0 0.0
2018-Jun-13 00:58N 38°32' W 028°38'0 0.0
2018-Jun-13 00:28N 38°32' W 028°38'0 0.0
2018-Jun-12 23:58N 38°32' W 028°38'0 0.0
2018-Jun-12 23:28N 38°32' W 028°38'0 0.0
2018-Jun-12 22:58N 38°32' W 028°38'0 0.0
2018-Jun-12 22:28N 38°32' W 028°38'  
Track history (hours):
 
Tides and Currents Weather Stations Pressure Air Temp Water Temp Dewpoint Dewpoint Depression Visibility Wind Speed Wind Dir Waves Ship Positions

Krassy

Last reported at 2018-Jun-16 01:27 UTC. Time now 2018-Jun-22 20:28 UTC.
Position N 39°25' W 028°12'.

Length 11 m.

Type: Pleasure craft. MMSI: 211591740.

Date/timePositionNaut miles runAvg speedWind from/ knotsBaromVisibWave heightAir tempDewpointWater temp
2018-Jun-16 01:27N 39°25' W 028°12'3 6.2
2018-Jun-16 00:55N 39°21' W 028°13'3 5.9
2018-Jun-16 00:28N 39°19' W 028°14'4 6.0
2018-Jun-15 23:51N 39°15' W 028°16'2 6.0
2018-Jun-15 23:27N 39°13' W 028°17'7 6.2
2018-Jun-15 22:23N 39°07' W 028°20'2 4.2
2018-Jun-15 21:57N 39°05' W 028°21'4 5.3
2018-Jun-15 21:08N 39°01' W 028°23'1 4.9
2018-Jun-15 20:58N 39°00' W 028°23'2 4.9
2018-Jun-15 20:30N 38°58' W 028°24'1 2.4
2018-Jun-15 19:55N 38°57' W 028°24'1 2.6
2018-Jun-15 19:30N 38°56' W 028°24'1 2.7
2018-Jun-15 19:00N 38°55' W 028°24'1 2.6
2018-Jun-15 18:30N 38°53' W 028°25'1 2.8
2018-Jun-15 18:00N 38°52' W 028°25'2 3.0
2018-Jun-15 17:30N 38°50' W 028°26'2 3.1
2018-Jun-15 17:01N 38°49' W 028°26'2 3.9
2018-Jun-15 16:30N 38°47' W 028°27'2 4.7
2018-Jun-15 16:01N 38°45' W 028°29'3 5.0
2018-Jun-15 15:30N 38°43' W 028°30'3 5.3
2018-Jun-15 15:00N 38°40' W 028°31'2 4.2
2018-Jun-15 14:31N 38°38' W 028°32'2 3.9
2018-Jun-15 14:00N 38°36' W 028°33'3 6.6
2018-Jun-15 13:30N 38°34' W 028°35'3 4.3
2018-Jun-15 12:52N 38°32' W 028°38'0 0.0
2018-Jun-15 12:22N 38°32' W 028°38'0 0.0
2018-Jun-15 11:58N 38°32' W 028°38'0 0.0
2018-Jun-15 11:28N 38°32' W 028°38'0 0.0
2018-Jun-15 10:58N 38°32' W 028°38'0 0.0
2018-Jun-15 10:28N 38°32' W 028°38'0 0.0
2018-Jun-15 09:58N 38°32' W 028°38'0 0.0
2018-Jun-15 09:28N 38°32' W 028°38'0 0.0
2018-Jun-15 08:58N 38°32' W 028°38'0 0.0
2018-Jun-15 08:25N 38°32' W 028°38'0 0.0
2018-Jun-15 07:58N 38°32' W 028°38'0 0.0
2018-Jun-15 07:28N 38°32' W 028°38'0 0.0
2018-Jun-15 06:58N 38°32' W 028°38'0 0.0
2018-Jun-15 06:28N 38°32' W 028°38'0 0.0
2018-Jun-15 05:58N 38°32' W 028°38'0 0.0
2018-Jun-15 05:28N 38°32' W 028°38'0 0.0
2018-Jun-15 04:58N 38°32' W 028°38'0 0.0
2018-Jun-15 04:25N 38°32' W 028°38'0 0.0
2018-Jun-15 03:58N 38°32' W 028°38'0 0.0
2018-Jun-15 03:28N 38°32' W 028°38'0 0.0
2018-Jun-15 02:58N 38°32' W 028°38'0 0.0
2018-Jun-15 02:28N 38°32' W 028°38'0 0.0
2018-Jun-15 01:58N 38°32' W 028°38'0 0.0
2018-Jun-15 01:28N 38°32' W 028°38'0 0.0
2018-Jun-15 00:58N 38°32' W 028°38'0 0.0
2018-Jun-15 00:28N 38°32' W 028°38'0 0.0
2018-Jun-14 23:58N 38°32' W 028°38'0 0.0
2018-Jun-14 23:28N 38°32' W 028°38'0 0.0
2018-Jun-14 22:58N 38°32' W 028°38'0 0.0
2018-Jun-14 22:28N 38°32' W 028°38'0 0.0
2018-Jun-14 21:58N 38°32' W 028°38'0 0.0
2018-Jun-14 21:28N 38°32' W 028°38'0 0.0
2018-Jun-14 20:58N 38°32' W 028°38'0 0.0
2018-Jun-14 20:28N 38°32' W 028°38'0 0.0
2018-Jun-14 19:58N 38°32' W 028°38'0 0.0
2018-Jun-14 19:28N 38°32' W 028°38'0 0.0
2018-Jun-14 18:58N 38°32' W 028°38'0 0.0
2018-Jun-14 18:28N 38°32' W 028°38'0 0.0
2018-Jun-14 17:58N 38°32' W 028°38'0 0.0
2018-Jun-14 17:28N 38°32' W 028°38'0 0.0
2018-Jun-14 16:58N 38°32' W 028°38'0 0.0
2018-Jun-14 16:25N 38°32' W 028°38'0 0.0
2018-Jun-14 15:58N 38°32' W 028°38'0 0.0
2018-Jun-14 15:28N 38°32' W 028°38'0 0.0
2018-Jun-14 14:58N 38°32' W 028°38'0 0.0
2018-Jun-14 14:28N 38°32' W 028°38'0 0.0
2018-Jun-14 13:55N 38°32' W 028°38'0 0.0
2018-Jun-14 13:28N 38°32' W 028°38'0 0.0
2018-Jun-14 12:58N 38°32' W 028°38'0 0.0
2018-Jun-14 12:25N 38°32' W 028°38'0 0.0
2018-Jun-14 11:58N 38°32' W 028°38'0 0.0
2018-Jun-14 11:28N 38°32' W 028°38'0 0.0
2018-Jun-14 10:58N 38°32' W 028°38'0 0.0
2018-Jun-14 10:22N 38°32' W 028°38'0 0.0
2018-Jun-14 09:58N 38°32' W 028°38'0 0.0
2018-Jun-14 09:28N 38°32' W 028°38'0 0.0
2018-Jun-14 08:58N 38°32' W 028°38'0 0.0
2018-Jun-14 08:28N 38°32' W 028°38'0 0.0
2018-Jun-14 07:58N 38°32' W 028°38'0 0.0
2018-Jun-14 07:22N 38°32' W 028°38'0 0.0
2018-Jun-14 06:58N 38°32' W 028°38'0 0.0
2018-Jun-14 06:28N 38°32' W 028°38'0 0.0
2018-Jun-14 05:58N 38°32' W 028°38'0 0.0
2018-Jun-14 05:28N 38°32' W 028°38'0 0.0
2018-Jun-14 04:52N 38°32' W 028°38'0 0.0
2018-Jun-14 04:28N 38°32' W 028°38'0 0.0
2018-Jun-14 03:52N 38°32' W 028°38'0 0.0
2018-Jun-14 03:22N 38°32' W 028°38'0 0.0
2018-Jun-14 02:58N 38°32' W 028°38'0 0.0
2018-Jun-14 02:28N 38°32' W 028°38'0 0.0
2018-Jun-14 01:58N 38°32' W 028°38'0 0.0
2018-Jun-14 01:28N 38°32' W 028°38'0 0.0
2018-Jun-14 00:58N 38°32' W 028°38'0 0.0
2018-Jun-14 00:25N 38°32' W 028°38'0 0.0
2018-Jun-13 23:52N 38°32' W 028°38'0 0.0
2018-Jun-13 23:28N 38°32' W 028°38'0 0.0
2018-Jun-13 22:58N 38°32' W 028°38'0 0.0
2018-Jun-13 22:28N 38°32' W 028°38'0 0.0
2018-Jun-13 21:55N 38°32' W 028°38'0 0.0
2018-Jun-13 21:28N 38°32' W 028°38'0 0.0
2018-Jun-13 20:58N 38°32' W 028°38'0 0.0
2018-Jun-13 20:28N 38°32' W 028°38'0 0.0
2018-Jun-13 19:58N 38°32' W 028°38'0 0.0
2018-Jun-13 19:28N 38°32' W 028°38'0 0.0
2018-Jun-13 18:55N 38°32' W 028°38'0 0.0
2018-Jun-13 18:25N 38°32' W 028°38'0 0.0
2018-Jun-13 17:58N 38°32' W 028°38'0 0.0
2018-Jun-13 17:28N 38°32' W 028°38'0 0.0
2018-Jun-13 16:58N 38°32' W 028°38'0 0.0
2018-Jun-13 16:28N 38°32' W 028°38'0 0.0
2018-Jun-13 15:55N 38°32' W 028°38'0 0.0
2018-Jun-13 15:22N 38°32' W 028°38'0 0.0
2018-Jun-13 14:52N 38°32' W 028°38'0 0.0
2018-Jun-13 14:25N 38°32' W 028°38'0 0.0
2018-Jun-13 13:58N 38°32' W 028°38'0 0.0
2018-Jun-13 13:28N 38°32' W 028°38'0 0.0
2018-Jun-13 12:49N 38°32' W 028°38'0 0.0
2018-Jun-13 12:28N 38°32' W 028°38'0 0.0
2018-Jun-13 11:58N 38°32' W 028°38'0 0.0
2018-Jun-13 11:22N 38°32' W 028°38'0 0.0
2018-Jun-13 10:58N 38°32' W 028°38'0 0.0
2018-Jun-13 10:28N 38°32' W 028°38'0 0.0
2018-Jun-13 09:55N 38°32' W 028°38'0 0.0
2018-Jun-13 09:28N 38°32' W 028°38'0 0.0
2018-Jun-13 08:55N 38°32' W 028°38'0 0.0
2018-Jun-13 08:28N 38°32' W 028°38'0 0.0
2018-Jun-13 07:58N 38°32' W 028°38'0 0.0
2018-Jun-13 07:28N 38°32' W 028°38'0 0.0
2018-Jun-13 06:58N 38°32' W 028°38'0 0.0
2018-Jun-13 06:22N 38°32' W 028°38'0 0.0
2018-Jun-13 05:58N 38°32' W 028°38'0 0.0
2018-Jun-13 05:28N 38°32' W 028°38'0 0.0
2018-Jun-13 04:46N 38°32' W 028°38'0 0.0
2018-Jun-13 04:28N 38°32' W 028°38'0 0.0
2018-Jun-13 03:58N 38°32' W 028°38'0 0.0
2018-Jun-13 03:22N 38°32' W 028°38'0 0.0
2018-Jun-13 02:58N 38°32' W 028°38'0 0.0
2018-Jun-13 02:28N 38°32' W 028°38'0 0.0
2018-Jun-13 01:55N 38°32' W 028°38'0 0.0
2018-Jun-13 01:28N 38°32' W 028°38'0 0.0
2018-Jun-13 00:58N 38°32' W 028°38'0 0.0
2018-Jun-13 00:28N 38°32' W 028°38'0 0.0
2018-Jun-12 23:58N 38°32' W 028°38'0 0.0
2018-Jun-12 23:28N 38°32' W 028°38'0 0.0
2018-Jun-12 22:58N 38°32' W 028°38'0 0.0
2018-Jun-12 22:28N 38°32' W 028°38'  

Dump ship's entire track history